Bayou Current, Louisiana
Current Conditions -  °F | °C
As of 10:55 AM on Saturday 22 Nov 2014 (Local Time) from KHZR Reporting Station
Clear Clear  
Wind Chill: 64°   Ceiling: Unl
Heat Index: 64°   Visibility: 10mi
Dew Point: 55°   Wind: 9mph
Humidity: 70%   Direction: 100°E
Pressure: 30.16"   Gusts: 21mph
Location:  30.6648°N, 91.7944°W
Report Text: KHZR 221655Z AUTO 10008G18KT 10SM CLR 18/13 A3016 RMK AO2 LTG DSNT W T01800125
Loading
Personal Weather Stations






























Interactive Weather Map New forecast layout! Learn more

10-Day Weather Forecast

Advertisements
Track Severe Weather on mobile